createdAt,value
2018-12-22T00:00:07.721Z,97.74
2018-12-22T00:02:37.629Z,97.48
2018-12-22T00:05:06.718Z,96.92
2018-12-22T00:07:36.140Z,96.64
2018-12-22T00:10:05.886Z,96.50
2018-12-22T00:12:35.221Z,96.01
2018-12-22T00:15:04.255Z,95.46
2018-12-22T00:17:33.568Z,94.77
2018-12-22T00:20:02.596Z,95.52
2018-12-22T00:22:31.520Z,94.88
2018-12-22T00:25:00.779Z,95.29
2018-12-22T00:27:29.804Z,96.04
2018-12-22T00:29:58.789Z,95.59
2018-12-22T00:32:27.943Z,96.69
2018-12-22T00:34:57.586Z,97.55
2018-12-22T00:37:26.510Z,97.44
2018-12-22T00:39:56.114Z,97.94
2018-12-22T00:42:25.928Z,98.35
2018-12-22T00:44:59.401Z,98.83
2018-12-22T00:47:28.805Z,98.90
2018-12-22T00:49:57.995Z,99.26
2018-12-22T00:52:27.122Z,99.46
2018-12-22T00:54:55.975Z,99.56
2018-12-22T00:57:24.926Z,99.35
2018-12-22T00:59:54.259Z,99.67
2018-12-22T01:02:23.447Z,99.30
2018-12-22T01:04:52.362Z,99.08
2018-12-22T01:07:21.275Z,98.98
2018-12-22T01:09:50.171Z,99.11
2018-12-22T01:12:19.207Z,99.20
2018-12-22T01:14:48.475Z,98.98
2018-12-22T01:17:17.486Z,98.36
2018-12-22T01:19:47.271Z,98.28
2018-12-22T01:22:16.196Z,98.34
2018-12-22T01:24:45.187Z,97.92
2018-12-22T01:27:14.686Z,97.90
2018-12-22T01:29:43.689Z,97.38
2018-12-22T01:32:13.079Z,97.69
2018-12-22T01:34:41.935Z,97.42
2018-12-22T01:37:11.392Z,97.69
2018-12-22T01:39:40.298Z,97.76
2018-12-22T01:42:09.569Z,97.65
2018-12-22T01:44:38.558Z,97.42
2018-12-22T01:47:07.722Z,97.64
2018-12-22T01:49:36.653Z,97.13
2018-12-22T01:52:05.540Z,97.22
2018-12-22T01:54:34.598Z,97.40
2018-12-22T01:57:03.637Z,97.15
2018-12-22T01:59:32.551Z,97.63
2018-12-22T02:02:01.470Z,98.74
2018-12-22T02:04:30.406Z,98.23
2018-12-22T02:06:59.442Z,98.12
2018-12-22T02:09:28.314Z,98.20
2018-12-22T02:11:57.153Z,98.83
2018-12-22T02:14:26.674Z,98.89
2018-12-22T02:16:55.570Z,99.42
2018-12-22T02:19:24.958Z,98.83
2018-12-22T02:21:53.884Z,98.72
2018-12-22T02:24:22.755Z,98.67
2018-12-22T02:26:51.656Z,98.29
2018-12-22T02:29:20.607Z,98.73
2018-12-22T02:31:49.676Z,98.38
2018-12-22T02:34:18.618Z,98.38
2018-12-22T02:36:47.563Z,98.65
2018-12-22T02:39:16.508Z,98.80
2018-12-22T02:41:45.414Z,99.04
2018-12-22T02:44:14.390Z,99.03
2018-12-22T02:46:43.284Z,99.39
2018-12-22T02:49:12.220Z,99.54
2018-12-22T02:51:41.501Z,99.49
2018-12-22T02:54:10.448Z,99.28
2018-12-22T02:56:39.515Z,98.95
2018-12-22T02:59:08.434Z,100.00
2018-12-22T03:01:37.492Z,99.46
2018-12-22T03:04:06.405Z,99.76
2018-12-22T03:06:35.292Z,100.00
2018-12-22T03:09:06.613Z,100.00
2018-12-22T03:11:35.493Z,100.00
2018-12-22T03:14:04.488Z,100.00
2018-12-22T03:16:33.807Z,100.00
2018-12-22T03:19:03.105Z,100.00
2018-12-22T03:21:32.156Z,100.00
2018-12-22T03:24:01.049Z,100.00
2018-12-22T03:26:29.990Z,100.00
2018-12-22T03:28:58.943Z,100.00
2018-12-22T03:31:27.933Z,100.00
2018-12-22T03:33:56.960Z,100.00
2018-12-22T03:36:26.272Z,100.00
2018-12-22T03:38:55.256Z,100.00
2018-12-22T03:41:24.516Z,100.00
2018-12-22T03:43:53.404Z,100.00
2018-12-22T03:46:22.358Z,100.00
2018-12-22T03:48:51.197Z,100.00
2018-12-22T03:51:20.086Z,100.00
2018-12-22T03:53:48.950Z,100.00
2018-12-22T03:56:17.989Z,100.00
2018-12-22T03:58:46.977Z,100.00
2018-12-22T04:01:16.165Z,100.00
2018-12-22T04:03:45.379Z,100.00
2018-12-22T04:06:14.452Z,100.00
2018-12-22T04:08:43.339Z,100.00
2018-12-22T04:11:12.386Z,100.00
2018-12-22T04:13:41.228Z,100.00
2018-12-22T04:16:10.220Z,100.00
2018-12-22T04:18:40.072Z,100.00
2018-12-22T04:21:08.985Z,100.00
2018-12-22T04:23:37.951Z,100.00
2018-12-22T04:26:06.914Z,100.00
2018-12-22T04:28:35.807Z,100.00
2018-12-22T04:31:04.756Z,100.00
2018-12-22T04:33:33.655Z,100.00
2018-12-22T04:36:02.758Z,100.00
2018-12-22T04:38:31.954Z,100.00
2018-12-22T04:41:00.968Z,100.00
2018-12-22T04:43:30.138Z,100.00
2018-12-22T04:45:59.218Z,100.00
2018-12-22T04:48:28.291Z,100.00
2018-12-22T04:50:57.218Z,100.00
2018-12-22T04:53:27.326Z,100.00
2018-12-22T04:55:56.357Z,100.00
2018-12-22T04:58:25.222Z,100.00
2018-12-22T05:00:54.896Z,100.00
2018-12-22T05:03:23.788Z,100.00
2018-12-22T05:05:52.729Z,100.00
2018-12-22T05:08:21.608Z,100.00
2018-12-22T05:10:50.528Z,100.00
2018-12-22T05:13:19.464Z,100.00
2018-12-22T05:15:49.321Z,100.00
2018-12-22T05:18:18.157Z,100.00
2018-12-22T05:20:47.312Z,100.00
2018-12-22T05:23:16.497Z,100.00
2018-12-22T05:25:45.490Z,100.00
2018-12-22T05:28:14.420Z,100.00
2018-12-22T05:30:43.395Z,100.00
2018-12-22T05:33:12.252Z,100.00
2018-12-22T05:35:41.259Z,100.00
2018-12-22T05:38:10.259Z,100.00
2018-12-22T05:40:39.436Z,100.00
2018-12-22T05:43:08.417Z,100.00
2018-12-22T05:45:37.286Z,100.00
2018-12-22T05:48:06.256Z,100.00
2018-12-22T05:50:35.311Z,100.00
2018-12-22T05:53:04.400Z,100.00
2018-12-22T05:55:33.637Z,100.00
2018-12-22T05:58:02.564Z,100.00
2018-12-22T06:00:31.457Z,100.00
2018-12-22T06:03:00.467Z,100.00
2018-12-22T06:05:29.508Z,100.00
2018-12-22T06:07:58.431Z,100.00
2018-12-22T06:10:27.370Z,100.00
2018-12-22T06:12:56.279Z,100.00
2018-12-22T06:15:25.211Z,100.00
2018-12-22T06:17:54.126Z,100.00
2018-12-22T06:20:23.243Z,100.00
2018-12-22T06:22:52.263Z,100.00
2018-12-22T06:25:21.537Z,100.00
2018-12-22T06:27:50.538Z,100.00
2018-12-22T06:30:19.481Z,100.00
2018-12-22T06:32:48.550Z,100.00
2018-12-22T06:35:17.771Z,100.00
2018-12-22T06:37:46.928Z,100.00
2018-12-22T06:40:16.338Z,100.00
2018-12-22T06:42:45.503Z,100.00
2018-12-22T06:45:14.687Z,100.00
2018-12-22T06:47:43.609Z,100.00
2018-12-22T06:50:12.536Z,100.00
2018-12-22T06:52:41.775Z,100.00
2018-12-22T06:55:10.851Z,100.00
2018-12-22T06:57:39.786Z,100.00
2018-12-22T07:00:17.402Z,100.00
2018-12-22T07:02:41.100Z,100.00
2018-12-22T07:05:10.203Z,100.00
2018-12-22T07:07:39.113Z,100.00
2018-12-22T07:10:09.115Z,100.00
2018-12-22T07:12:38.242Z,100.00
2018-12-22T07:15:07.400Z,100.00
2018-12-22T07:17:36.434Z,100.00
2018-12-22T07:20:05.915Z,100.00
2018-12-22T07:22:34.915Z,100.00
2018-12-22T07:25:04.233Z,100.00
2018-12-22T07:27:33.545Z,100.00
2018-12-22T07:30:02.701Z,100.00
2018-12-22T07:32:31.765Z,100.00
2018-12-22T07:35:00.800Z,100.00
2018-12-22T07:37:29.690Z,100.00
2018-12-22T07:39:58.623Z,100.00
2018-12-22T07:42:27.640Z,100.00
2018-12-22T07:44:56.574Z,100.00
2018-12-22T07:47:25.760Z,100.00
2018-12-22T07:49:54.705Z,100.00
2018-12-22T07:52:23.695Z,100.00
2018-12-22T07:54:52.695Z,100.00
2018-12-22T07:57:22.603Z,100.00
2018-12-22T07:59:51.846Z,100.00
2018-12-22T08:02:20.726Z,100.00
2018-12-22T08:04:49.659Z,100.00
2018-12-22T08:07:18.914Z,100.00
2018-12-22T08:09:48.299Z,100.00
2018-12-22T08:12:17.372Z,100.00
2018-12-22T08:14:46.268Z,100.00
2018-12-22T08:17:15.173Z,100.00
2018-12-22T08:19:44.339Z,100.00
2018-12-22T08:22:13.981Z,100.00
2018-12-22T08:24:43.166Z,100.00
2018-12-22T08:27:12.026Z,100.00
2018-12-22T08:29:41.105Z,100.00
2018-12-22T08:32:10.068Z,100.00
2018-12-22T08:34:39.003Z,100.00
2018-12-22T08:37:08.232Z,100.00
2018-12-22T08:39:37.282Z,100.00
2018-12-22T08:42:06.250Z,100.00
2018-12-22T08:44:35.209Z,100.00
2018-12-22T08:47:04.239Z,100.00
2018-12-22T08:49:33.196Z,100.00
2018-12-22T08:52:02.086Z,100.00
2018-12-22T08:54:31.160Z,100.00
2018-12-22T08:57:00.455Z,100.00
2018-12-22T08:59:29.355Z,100.00
2018-12-22T09:01:58.261Z,100.00
2018-12-22T09:04:27.992Z,100.00
2018-12-22T09:06:56.904Z,100.00
2018-12-22T09:09:26.493Z,100.00
2018-12-22T09:11:55.346Z,100.00
2018-12-22T09:14:24.306Z,100.00
2018-12-22T09:16:53.368Z,100.00
2018-12-22T09:19:22.316Z,100.00
2018-12-22T09:21:51.247Z,100.00
2018-12-22T09:24:20.183Z,100.00
2018-12-22T09:26:49.091Z,100.00
2018-12-22T09:29:17.985Z,100.00
2018-12-22T09:31:47.067Z,100.00
2018-12-22T09:34:16.106Z,100.00
2018-12-22T09:36:45.091Z,100.00
2018-12-22T09:39:13.947Z,100.00
2018-12-22T09:41:43.019Z,100.00
2018-12-22T09:44:11.942Z,100.00
2018-12-22T09:46:43.062Z,100.00
2018-12-22T09:49:12.022Z,100.00
2018-12-22T09:51:40.909Z,100.00
2018-12-22T09:54:09.779Z,100.00
2018-12-22T09:56:38.687Z,100.00
2018-12-22T09:59:07.625Z,100.00
2018-12-22T10:01:36.516Z,100.00
2018-12-22T10:04:05.692Z,100.00
2018-12-22T10:06:35.420Z,100.00
2018-12-22T10:09:07.219Z,100.00
2018-12-22T10:11:37.581Z,100.00
2018-12-22T10:14:06.565Z,100.00
2018-12-22T10:16:35.486Z,100.00
2018-12-22T10:19:04.415Z,100.00
2018-12-22T10:21:33.403Z,100.00
2018-12-22T10:24:02.465Z,100.00
2018-12-22T10:26:32.702Z,100.00
2018-12-22T10:29:02.778Z,100.00
2018-12-22T10:31:32.083Z,100.00
2018-12-22T10:34:00.984Z,100.00
2018-12-22T10:36:30.764Z,100.00
2018-12-22T10:38:59.808Z,100.00
2018-12-22T10:41:28.811Z,100.00
2018-12-22T10:43:57.762Z,100.00
2018-12-22T10:46:26.944Z,100.00
2018-12-22T10:48:56.715Z,100.00
2018-12-22T10:51:25.767Z,100.00
2018-12-22T10:53:54.740Z,100.00
2018-12-22T10:56:23.754Z,100.00
2018-12-22T10:58:52.846Z,100.00
2018-12-22T11:01:26.368Z,100.00
2018-12-22T11:03:52.718Z,100.00
2018-12-22T11:06:21.847Z,100.00
2018-12-22T11:08:51.326Z,100.00
2018-12-22T11:11:20.262Z,100.00
2018-12-22T11:13:49.252Z,100.00
2018-12-22T11:16:18.288Z,100.00
2018-12-22T11:18:47.194Z,100.00
2018-12-22T11:21:16.087Z,100.00
2018-12-22T11:23:44.969Z,100.00
2018-12-22T11:26:13.983Z,100.00
2018-12-22T11:28:42.869Z,100.00
2018-12-22T11:31:11.736Z,100.00
2018-12-22T11:33:40.649Z,100.00
2018-12-22T11:36:09.550Z,100.00
2018-12-22T11:38:38.773Z,100.00
2018-12-22T11:41:07.628Z,100.00
2018-12-22T11:43:36.937Z,100.00
2018-12-22T11:46:06.289Z,100.00
2018-12-22T11:48:57.935Z,100.00
2018-12-22T11:51:27.076Z,100.00
2018-12-22T11:53:55.962Z,100.00
2018-12-22T11:56:24.863Z,100.00
2018-12-22T11:58:53.886Z,100.00
2018-12-22T12:01:22.730Z,100.00
2018-12-22T12:03:51.735Z,100.00
2018-12-22T12:06:20.652Z,100.00
2018-12-22T12:08:49.606Z,100.00
2018-12-22T12:11:18.446Z,100.00
2018-12-22T12:13:48.751Z,100.00
2018-12-22T12:16:29.364Z,100.00
2018-12-22T12:19:21.730Z,100.00
2018-12-22T12:21:50.981Z,100.00
2018-12-22T12:24:19.962Z,100.00
2018-12-22T12:26:49.264Z,100.00
2018-12-22T12:29:18.527Z,100.00
2018-12-22T12:31:52.065Z,100.00
2018-12-22T12:34:18.555Z,100.00
2018-12-22T12:36:47.550Z,100.00
2018-12-22T12:39:16.979Z,100.00
2018-12-22T12:41:46.113Z,100.00
2018-12-22T12:44:15.032Z,100.00
2018-12-22T12:46:48.154Z,100.00
2018-12-22T12:49:18.837Z,100.00
2018-12-22T12:51:48.022Z,100.00
2018-12-22T12:54:17.315Z,100.00
2018-12-22T12:56:57.462Z,100.00
2018-12-22T12:59:28.571Z,100.00
2018-12-22T13:02:01.291Z,100.00
2018-12-22T13:04:28.890Z,100.00
2018-12-22T13:06:57.903Z,100.00
2018-12-22T13:09:27.255Z,100.00
2018-12-22T13:12:00.955Z,100.00
2018-12-22T13:14:29.899Z,100.00
2018-12-22T13:16:58.814Z,100.00
2018-12-22T13:19:27.906Z,100.00
2018-12-22T13:21:56.811Z,100.00
2018-12-22T13:24:25.840Z,100.00
2018-12-22T13:26:54.651Z,100.00
2018-12-22T13:29:23.587Z,100.00
2018-12-22T13:31:52.816Z,100.00
2018-12-22T13:34:21.722Z,100.00
2018-12-22T13:36:50.669Z,100.00
2018-12-22T13:39:27.742Z,100.00
2018-12-22T13:41:57.049Z,100.00
2018-12-22T13:44:26.384Z,100.00
2018-12-22T13:46:55.331Z,100.00
2018-12-22T13:49:24.695Z,100.00
2018-12-22T13:51:53.670Z,100.00
2018-12-22T13:54:25.529Z,100.00
2018-12-22T13:56:54.753Z,100.00
2018-12-22T13:59:24.218Z,100.00
2018-12-22T14:02:02.434Z,100.00
2018-12-22T14:04:34.422Z,100.00
2018-12-22T14:07:05.492Z,100.00
2018-12-22T14:09:34.761Z,100.00
2018-12-22T14:12:03.654Z,100.00
2018-12-22T14:14:38.471Z,100.00
2018-12-22T14:17:30.951Z,100.00
2018-12-22T14:20:10.493Z,100.00
2018-12-22T14:22:39.365Z,100.00
2018-12-22T14:25:19.807Z,100.00
2018-12-22T14:27:48.673Z,100.00
2018-12-22T14:30:17.615Z,100.00
2018-12-22T14:32:46.573Z,100.00
2018-12-22T14:35:37.894Z,100.00
2018-12-22T14:38:07.172Z,100.00
2018-12-22T14:40:36.134Z,100.00
2018-12-22T14:43:05.215Z,100.00
2018-12-22T14:45:34.074Z,100.00
2018-12-22T14:48:03.016Z,100.00
2018-12-22T14:50:32.066Z,100.00
2018-12-22T14:53:01.040Z,100.00
2018-12-22T14:55:32.703Z,100.00
2018-12-22T14:58:10.834Z,100.00
2018-12-22T15:00:39.712Z,100.00
2018-12-22T15:03:09.556Z,100.00
2018-12-22T15:05:38.657Z,100.00
2018-12-22T15:08:07.859Z,100.00
2018-12-22T15:10:37.019Z,100.00
2018-12-22T15:13:05.922Z,100.00
2018-12-22T15:15:34.953Z,100.00
2018-12-22T15:18:04.553Z,100.00
2018-12-22T15:20:33.927Z,100.00
2018-12-22T15:23:07.220Z,100.00
2018-12-22T15:25:36.158Z,100.00
2018-12-22T15:28:05.370Z,100.00
2018-12-22T15:30:34.260Z,100.00
2018-12-22T15:33:03.180Z,100.00
2018-12-22T15:35:32.098Z,100.00
2018-12-22T15:38:01.114Z,100.00
2018-12-22T15:40:29.998Z,100.00
2018-12-22T15:42:59.202Z,100.00
2018-12-22T15:45:28.116Z,100.00
2018-12-22T15:47:56.996Z,100.00
2018-12-22T15:50:29.174Z,100.00
2018-12-22T15:52:58.834Z,100.00
2018-12-22T15:55:27.846Z,100.00
2018-12-22T15:57:56.739Z,100.00
2018-12-22T16:00:25.678Z,100.00
2018-12-22T16:02:54.794Z,100.00
2018-12-22T16:05:23.634Z,100.00
2018-12-22T16:07:52.526Z,100.00
2018-12-22T16:10:21.391Z,100.00
2018-12-22T16:12:50.278Z,100.00
2018-12-22T16:15:20.374Z,100.00
2018-12-22T16:17:49.453Z,100.00
2018-12-22T16:20:18.462Z,100.00
2018-12-22T16:22:54.703Z,100.00
2018-12-22T16:25:24.445Z,100.00
2018-12-22T16:27:59.937Z,100.00
2018-12-22T16:30:39.355Z,100.00
2018-12-22T16:33:08.255Z,100.00
2018-12-22T16:35:37.214Z,100.00
2018-12-22T16:38:06.583Z,100.00
2018-12-22T16:40:35.667Z,100.00
2018-12-22T16:43:08.251Z,100.00
2018-12-22T16:45:40.882Z,100.00
2018-12-22T16:48:09.883Z,100.00
2018-12-22T16:50:40.680Z,100.00
2018-12-22T16:53:09.565Z,100.00
2018-12-22T16:55:38.460Z,100.00
2018-12-22T16:58:21.081Z,100.00
2018-12-22T17:02:01.119Z,100.00
2018-12-22T17:04:30.050Z,100.00
2018-12-22T17:06:58.948Z,100.00
2018-12-22T17:09:27.849Z,100.00
2018-12-22T17:11:56.756Z,100.00
2018-12-22T17:14:26.185Z,100.00
2018-12-22T17:16:55.084Z,100.00
2018-12-22T17:19:24.013Z,100.00
2018-12-22T17:22:09.466Z,100.00
2018-12-22T17:24:57.002Z,100.00
2018-12-22T17:27:25.887Z,100.00
2018-12-22T17:29:54.844Z,100.00
2018-12-22T17:32:23.751Z,100.00
2018-12-22T17:34:52.738Z,100.00
2018-12-22T17:37:21.898Z,100.00
2018-12-22T17:39:53.454Z,100.00
2018-12-22T17:42:22.241Z,100.00
2018-12-22T17:44:51.113Z,100.00
2018-12-22T17:47:20.060Z,100.00
2018-12-22T17:49:49.360Z,100.00
2018-12-22T17:52:18.292Z,100.00
2018-12-22T17:54:47.198Z,100.00
2018-12-22T17:57:16.073Z,100.00
2018-12-22T17:59:45.413Z,100.00
2018-12-22T18:02:14.600Z,100.00
2018-12-22T18:04:43.513Z,100.00
2018-12-22T18:07:12.456Z,100.00
2018-12-22T18:09:41.390Z,100.00
2018-12-22T18:12:10.321Z,100.00
2018-12-22T18:14:39.144Z,100.00
2018-12-22T18:17:07.991Z,100.00
2018-12-22T18:19:36.901Z,100.00
2018-12-22T18:22:05.857Z,100.00
2018-12-22T18:24:34.853Z,100.00
2018-12-22T18:27:03.786Z,100.00
2018-12-22T18:29:32.898Z,100.00
2018-12-22T18:32:01.803Z,100.00
2018-12-22T18:34:30.641Z,100.00
2018-12-22T18:36:59.618Z,100.00
2018-12-22T18:39:28.795Z,100.00
2018-12-22T18:41:57.736Z,100.00
2018-12-22T18:44:26.590Z,100.00
2018-12-22T18:46:55.497Z,100.00
2018-12-22T18:49:24.441Z,100.00
2018-12-22T18:51:53.314Z,100.00
2018-12-22T18:54:22.524Z,100.00
2018-12-22T18:56:51.411Z,100.00
2018-12-22T18:59:22.004Z,100.00
2018-12-22T19:01:50.942Z,100.00
2018-12-22T19:04:19.797Z,100.00
2018-12-22T19:06:48.719Z,100.00
2018-12-22T19:09:26.047Z,100.00
2018-12-22T19:11:54.977Z,100.00
2018-12-22T19:14:23.835Z,100.00
2018-12-22T19:16:52.750Z,100.00
2018-12-22T19:19:21.608Z,100.00
2018-12-22T19:21:50.534Z,100.00
2018-12-22T19:24:19.447Z,100.00
2018-12-22T19:26:48.759Z,100.00
2018-12-22T19:29:17.571Z,100.00
2018-12-22T19:31:46.713Z,100.00
2018-12-22T19:34:15.590Z,100.00
2018-12-22T19:36:44.531Z,100.00
2018-12-22T19:39:13.395Z,100.00
2018-12-22T19:41:42.566Z,100.00
2018-12-22T19:44:11.789Z,100.00
2018-12-22T19:46:40.669Z,100.00
2018-12-22T19:49:10.254Z,100.00
2018-12-22T19:51:39.151Z,100.00
2018-12-22T19:54:08.898Z,100.00
2018-12-22T19:56:38.156Z,100.00
2018-12-22T19:59:06.967Z,100.00
2018-12-22T20:01:35.927Z,100.00
2018-12-22T20:04:04.808Z,100.00
2018-12-22T20:06:33.635Z,100.00
2018-12-22T20:09:03.967Z,100.00
2018-12-22T20:11:32.875Z,100.00
2018-12-22T20:14:02.132Z,100.00
2018-12-22T20:16:31.213Z,100.00
2018-12-22T20:19:00.078Z,100.00
2018-12-22T20:21:28.927Z,100.00
2018-12-22T20:23:57.831Z,100.00
2018-12-22T20:26:26.720Z,100.00
2018-12-22T20:28:55.614Z,100.00
2018-12-22T20:31:24.485Z,100.00
2018-12-22T20:33:53.390Z,100.00
2018-12-22T20:36:22.238Z,100.00
2018-12-22T20:38:51.161Z,100.00
2018-12-22T20:41:19.994Z,100.00
2018-12-22T20:43:48.931Z,100.00
2018-12-22T20:46:17.746Z,100.00
2018-12-22T20:48:46.662Z,100.00
2018-12-22T20:51:15.560Z,100.00
2018-12-22T20:53:45.113Z,100.00
2018-12-22T20:56:14.282Z,100.00
2018-12-22T20:58:43.206Z,100.00
2018-12-22T21:01:12.061Z,100.00
2018-12-22T21:03:41.438Z,100.00
2018-12-22T21:06:16.961Z,100.00
2018-12-22T21:08:45.894Z,100.00
2018-12-22T21:11:14.787Z,100.00
2018-12-22T21:13:43.730Z,100.00
2018-12-22T21:16:12.566Z,100.00
2018-12-22T21:18:41.488Z,100.00
2018-12-22T21:21:10.337Z,100.00
2018-12-22T21:23:39.207Z,100.00
2018-12-22T21:26:08.419Z,100.00
2018-12-22T21:28:38.157Z,100.00
2018-12-22T21:31:07.195Z,100.00
2018-12-22T21:33:36.111Z,100.00
2018-12-22T21:36:05.266Z,100.00
2018-12-22T21:38:34.233Z,100.00
2018-12-22T21:41:03.402Z,100.00
2018-12-22T21:43:32.349Z,100.00
2018-12-22T21:46:01.186Z,100.00
2018-12-22T21:48:30.341Z,100.00
2018-12-22T21:50:59.266Z,100.00
2018-12-22T21:53:28.260Z,100.00
2018-12-22T21:55:57.128Z,100.00
2018-12-22T21:58:26.125Z,100.00
2018-12-22T22:00:54.986Z,100.00
2018-12-22T22:03:24.198Z,100.00
2018-12-22T22:05:53.207Z,100.00
2018-12-22T22:08:22.079Z,100.00
2018-12-22T22:10:50.976Z,100.00
2018-12-22T22:13:19.859Z,100.00
2018-12-22T22:15:49.062Z,100.00
2018-12-22T22:18:17.909Z,100.00
2018-12-22T22:20:46.867Z,100.00
2018-12-22T22:23:19.110Z,100.00
2018-12-22T22:25:50.527Z,100.00
2018-12-22T22:28:21.458Z,100.00
2018-12-22T22:30:53.716Z,100.00
2018-12-22T22:33:24.414Z,100.00
2018-12-22T22:35:54.936Z,100.00
2018-12-22T22:38:25.609Z,100.00
2018-12-22T22:40:54.798Z,100.00
2018-12-22T22:43:23.762Z,100.00
2018-12-22T22:45:52.656Z,100.00
2018-12-22T22:48:22.061Z,100.00
2018-12-22T22:50:51.056Z,100.00
2018-12-22T22:53:20.143Z,100.00
2018-12-22T22:55:49.255Z,100.00
2018-12-22T22:58:18.323Z,100.00
2018-12-22T23:00:47.471Z,100.00
2018-12-22T23:03:16.645Z,100.00
2018-12-22T23:05:46.194Z,100.00
2018-12-22T23:08:17.047Z,100.00
2018-12-22T23:10:46.089Z,100.00
2018-12-22T23:13:15.107Z,100.00
2018-12-22T23:15:44.660Z,100.00
2018-12-22T23:18:13.762Z,100.00
2018-12-22T23:20:42.866Z,100.00
2018-12-22T23:23:11.805Z,100.00
2018-12-22T23:25:40.811Z,100.00
2018-12-22T23:28:09.979Z,100.00
2018-12-22T23:30:38.977Z,100.00
2018-12-22T23:33:08.111Z,100.00
2018-12-22T23:35:37.126Z,100.00
2018-12-22T23:38:06.290Z,100.00
2018-12-22T23:40:35.318Z,100.00
2018-12-22T23:43:04.808Z,100.00
2018-12-22T23:45:34.065Z,100.00
2018-12-22T23:48:03.550Z,100.00
2018-12-22T23:50:32.929Z,100.00
2018-12-22T23:53:02.103Z,100.00
2018-12-22T23:55:31.513Z,100.00
2018-12-22T23:58:00.434Z,100.00
